FDMS/MTS METAR and TAF weather

Enter ICAO airport designator
Station Type Date Time Source
FDMS METAR 2019/10/17 14:00 UTC NOAA

FDMS 171400Z 03008KT CAVOK 30/10 Q1019 NOSIG


Station Type Date Time Source
FDMS Decoded METAR 2019/10/17 14:00 UTC NOAA

Manzini / Matsapa Airport, Swaziland (FDMS) 26-32S 031-18E
Oct 17, 2019 - 10:00 AM EDT / 2019.10.17 1400 UTC
Wind: from the NNE (030 degrees) at 9 MPH (8 KT):0
Visibility: greater than 7 mile(s):0
Temperature: 86 F (30 C)
Dew Point: 50 F (10 C)
Relative Humidity: 28%
Pressure (altimeter): 30.09 in. Hg (1019 hPa)
ob: FDMS 171400Z 03008KT CAVOK 30/10 Q1019 NOSIG
cycle: 14

Station Type Date Time Source
FDMS TAF 2019/10/02 12:36 UTC NOAA

TAF FDMS 021000Z 0212/0318 08007KT 9999 SCT035

Example: see airport list